sensor_id;sensor_type;location;lat;lon;timestamp;pressure;altitude;pressure_sealevel;temperature;humidity
66021;BME280;52789;59.980;30.346;2023-03-15T00:00:19;98954.81;;;4.23;100.00
66021;BME280;52789;59.980;30.346;2023-03-15T00:02:44;98954.16;;;4.21;100.00
66021;BME280;52789;59.980;30.346;2023-03-15T00:05:10;98945.59;;;4.19;100.00
66021;BME280;52789;59.980;30.346;2023-03-15T00:07:37;98941.31;;;4.18;100.00
66021;BME280;52789;59.980;30.346;2023-03-15T00:10:02;98940.16;;;4.20;100.00
66021;BME280;52789;59.980;30.346;2023-03-15T00:12:28;98938.34;;;4.21;100.00
66021;BME280;52789;59.980;30.346;2023-03-15T00:14:53;98934.06;;;4.28;100.00
66021;BME280;52789;59.980;30.346;2023-03-15T00:17:19;98925.16;;;4.29;100.00
66021;BME280;52789;59.980;30.346;2023-03-15T00:19:47;98924.19;;;4.22;100.00
66021;BME280;52789;59.980;30.346;2023-03-15T00:22:12;98925.81;;;4.23;100.00
66021;BME280;52789;59.980;30.346;2023-03-15T00:24:38;98930.44;;;4.21;100.00
66021;BME280;52789;59.980;30.346;2023-03-15T00:27:04;98938.19;;;4.22;100.00
66021;BME280;52789;59.980;30.346;2023-03-15T00:29:31;98943.28;;;4.24;100.00
66021;BME280;52789;59.980;30.346;2023-03-15T00:31:56;98943.28;;;4.24;100.00
66021;BME280;52789;59.980;30.346;2023-03-15T00:34:22;98956.13;;;4.27;100.00
66021;BME280;52789;59.980;30.346;2023-03-15T00:36:50;98954.13;;;4.29;100.00
66021;BME280;52789;59.980;30.346;2023-03-15T00:39:18;98954.13;;;4.29;100.00
66021;BME280;52789;59.980;30.346;2023-03-15T00:41:43;98960.88;;;4.31;100.00
66021;BME280;52789;59.980;30.346;2023-03-15T00:44:09;98966.97;;;4.32;100.00
66021;BME280;52789;59.980;30.346;2023-03-15T00:46:35;98962.69;;;4.31;100.00
66021;BME280;52789;59.980;30.346;2023-03-15T00:49:00;98956.44;;;4.32;100.00
66021;BME280;52789;59.980;30.346;2023-03-15T00:51:25;98957.25;;;4.32;100.00
66021;BME280;52789;59.980;30.346;2023-03-15T00:53:51;98957.78;;;4.36;100.00
66021;BME280;52789;59.980;30.346;2023-03-15T00:56:18;98958.09;;;4.33;100.00
66021;BME280;52789;59.980;30.346;2023-03-15T00:58:44;98958.09;;;4.33;100.00
66021;BME280;52789;59.980;30.346;2023-03-15T01:01:11;98953.81;;;4.32;100.00
66021;BME280;52789;59.980;30.346;2023-03-15T01:03:38;98946.59;;;4.34;100.00
66021;BME280;52789;59.980;30.346;2023-03-15T01:06:04;98947.06;;;4.38;100.00
66021;BME280;52789;59.980;30.346;2023-03-15T01:08:29;98952.16;;;4.39;100.00
66021;BME280;52789;59.980;30.346;2023-03-15T01:10:55;98954.81;;;4.39;100.00
66021;BME280;52789;59.980;30.346;2023-03-15T01:13:20;98955.63;;;4.40;100.00
66021;BME280;52789;59.980;30.346;2023-03-15T01:15:48;98960.72;;;4.41;100.00
66021;BME280;52789;59.980;30.346;2023-03-15T01:18:13;98951.31;;;4.47;100.00
66021;BME280;52789;59.980;30.346;2023-03-15T01:20:41;98955.78;;;4.46;100.00
66021;BME280;52789;59.980;30.346;2023-03-15T01:23:07;98962.38;;;4.42;100.00
66021;BME280;52789;59.980;30.346;2023-03-15T01:25:33;98968.47;;;4.43;100.00
66021;BME280;52789;59.980;30.346;2023-03-15T01:27:59;98973.75;;;4.43;100.00
66021;BME280;52789;59.980;30.346;2023-03-15T01:30:25;98971.94;;;4.43;100.00
66021;BME280;52789;59.980;30.346;2023-03-15T01:32:50;98978.50;;;4.47;100.00
66021;BME280;52789;59.980;30.346;2023-03-15T01:35:16;98971.91;;;4.51;100.00
66021;BME280;52789;59.980;30.346;2023-03-15T01:37:41;98968.63;;;4.49;100.00
66021;BME280;52789;59.980;30.346;2023-03-15T01:40:11;98968.97;;;4.46;100.00
66021;BME280;52789;59.980;30.346;2023-03-15T01:48:05;98979.00;;;4.43;100.00
66021;BME280;52789;59.980;30.346;2023-03-15T01:50:32;98979.50;;;4.46;100.00
66021;BME280;52789;59.980;30.346;2023-03-15T01:52:58;98980.66;;;4.44;100.00
66021;BME280;52789;59.980;30.346;2023-03-15T01:55:23;98976.53;;;4.49;100.00
66021;BME280;52789;59.980;30.346;2023-03-15T01:57:49;98977.34;;;4.50;100.00
66021;BME280;52789;59.980;30.346;2023-03-15T02:00:17;98979.50;;;4.46;100.00
66021;BME280;52789;59.980;30.346;2023-03-15T02:02:48;98988.88;;;4.49;100.00
66021;BME280;52789;59.980;30.346;2023-03-15T02:05:19;98984.13;;;4.44;100.00
66021;BME280;52789;59.980;30.346;2023-03-15T02:07:46;98982.63;;;4.50;100.00
66021;BME280;52789;59.980;30.346;2023-03-15T02:10:18;98982.44;;;4.51;100.00
66021;BME280;52789;59.980;30.346;2023-03-15T02:12:46;98977.66;;;4.55;100.00
66021;BME280;52789;59.980;30.346;2023-03-15T02:15:14;98978.97;;;4.59;100.00
66021;BME280;52789;59.980;30.346;2023-03-15T02:17:41;98971.06;;;4.59;100.00
66021;BME280;52789;59.980;30.346;2023-03-15T02:28:17;98978.63;;;4.62;100.00
66021;BME280;52789;59.980;30.346;2023-03-15T02:30:43;98968.91;;;4.62;100.00
66021;BME280;52789;59.980;30.346;2023-03-15T02:33:23;98978.81;;;4.69;100.00
66021;BME280;52789;59.980;30.346;2023-03-15T02:35:50;98988.03;;;4.73;100.00
66021;BME280;52789;59.980;30.346;2023-03-15T02:38:15;98988.69;;;4.75;100.00
66021;BME280;52789;59.980;30.346;2023-03-15T02:40:41;98994.94;;;4.74;100.00
66021;BME280;52789;59.980;30.346;2023-03-15T02:43:10;98992.13;;;4.75;100.00
66021;BME280;52789;59.980;30.346;2023-03-15T02:45:37;99006.16;;;4.76;100.00
66021;BME280;52789;59.980;30.346;2023-03-15T02:48:03;99010.25;;;4.78;100.00
66021;BME280;52789;59.980;30.346;2023-03-15T02:50:30;98998.22;;;4.76;100.00
66021;BME280;52789;59.980;30.346;2023-03-15T02:52:55;99005.81;;;4.79;100.00
66021;BME280;52789;59.980;30.346;2023-03-15T02:55:20;99003.34;;;4.77;100.00
66021;BME280;52789;59.980;30.346;2023-03-15T02:57:46;99009.09;;;4.81;100.00
66021;BME280;52789;59.980;30.346;2023-03-15T03:00:11;99007.09;;;4.83;100.00
66021;BME280;52789;59.980;30.346;2023-03-15T03:02:39;99010.56;;;4.83;100.00
66021;BME280;52789;59.980;30.346;2023-03-15T03:05:04;99001.50;;;4.86;100.00
66021;BME280;52789;59.980;30.346;2023-03-15T03:07:30;99008.75;;;4.84;100.00
66021;BME280;52789;59.980;30.346;2023-03-15T03:09:55;99015.03;;;4.83;100.00
66021;BME280;52789;59.980;30.346;2023-03-15T03:12:21;99015.03;;;4.83;100.00
66021;BME280;52789;59.980;30.346;2023-03-15T03:14:47;99019.47;;;4.82;100.00
66021;BME280;52789;59.980;30.346;2023-03-15T03:17:13;99013.72;;;4.79;100.00
66021;BME280;52789;59.980;30.346;2023-03-15T03:19:38;99027.38;;;4.82;100.00
66021;BME280;52789;59.980;30.346;2023-03-15T03:22:03;99019.31;;;4.84;100.00
66021;BME280;52789;59.980;30.346;2023-03-15T03:24:29;99021.78;;;4.85;100.00
66021;BME280;52789;59.980;30.346;2023-03-15T03:26:55;99036.44;;;4.88;100.00
66021;BME280;52789;59.980;30.346;2023-03-15T03:29:22;99026.53;;;4.90;100.00
66021;BME280;52789;59.980;30.346;2023-03-15T03:31:48;99029.84;;;4.92;100.00
66021;BME280;52789;59.980;30.346;2023-03-15T03:34:14;99040.56;;;4.90;100.00
66021;BME280;52789;59.980;30.346;2023-03-15T03:36:40;99029.19;;;4.90;100.00
66021;BME280;52789;59.980;30.346;2023-03-15T03:39:05;99030.81;;;4.91;100.00
66021;BME280;52789;59.980;30.346;2023-03-15T03:41:30;99032.16;;;4.87;100.00
66021;BME280;52789;59.980;30.346;2023-03-15T03:43:56;99040.06;;;4.87;100.00
66021;BME280;52789;59.980;30.346;2023-03-15T03:46:21;99042.69;;;4.87;100.00
66021;BME280;52789;59.980;30.346;2023-03-15T03:48:46;99048.97;;;4.86;100.00
66021;BME280;52789;59.980;30.346;2023-03-15T03:51:12;99052.94;;;4.82;100.00
66021;BME280;52789;59.980;30.346;2023-03-15T03:53:37;99056.56;;;4.81;100.00
66021;BME280;52789;59.980;30.346;2023-03-15T03:56:03;99054.91;;;4.80;100.00
66021;BME280;52789;59.980;30.346;2023-03-15T03:58:29;99057.72;;;4.78;100.00
66021;BME280;52789;59.980;30.346;2023-03-15T04:00:54;99060.19;;;4.80;100.00
66021;BME280;52789;59.980;30.346;2023-03-15T04:03:20;99065.16;;;4.75;100.00
66021;BME280;52789;59.980;30.346;2023-03-15T04:05:51;99075.88;;;4.73;100.00
66021;BME280;52789;59.980;30.346;2023-03-15T04:08:17;99078.50;;;4.73;100.00
66021;BME280;52789;59.980;30.346;2023-03-15T04:10:42;99082.78;;;4.74;100.00
66021;BME280;52789;59.980;30.346;2023-03-15T04:13:07;99081.31;;;4.72;100.00
66021;BME280;52789;59.980;30.346;2023-03-15T04:15:33;99088.88;;;4.75;100.00
66021;BME280;52789;59.980;30.346;2023-03-15T04:17:58;99096.16;;;4.73;100.00
66021;BME280;52789;59.980;30.346;2023-03-15T04:20:24;99097.31;;;4.70;100.00
66021;BME280;52789;59.980;30.346;2023-03-15T04:22:49;99094.50;;;4.72;100.00
66021;BME280;52789;59.980;30.346;2023-03-15T04:25:15;99100.09;;;4.69;100.00
66021;BME280;52789;59.980;30.346;2023-03-15T04:27:41;99104.72;;;4.66;100.00
66021;BME280;52789;59.980;30.346;2023-03-15T04:30:06;99101.09;;;4.68;100.00
66021;BME280;52789;59.980;30.346;2023-03-15T04:32:32;99096.00;;;4.66;100.00
66021;BME280;52789;59.980;30.346;2023-03-15T04:34:57;99101.25;;;4.66;100.00
66021;BME280;52789;59.980;30.346;2023-03-15T04:37:23;99100.09;;;4.69;100.00
66021;BME280;52789;59.980;30.346;2023-03-15T04:39:48;99100.75;;;4.71;100.00
66021;BME280;52789;59.980;30.346;2023-03-15T04:42:13;99112.78;;;4.73;100.00
66021;BME280;52789;59.980;30.346;2023-03-15T04:44:38;99104.72;;;4.75;100.00
66021;BME280;52789;59.980;30.346;2023-03-15T04:47:04;99112.47;;;4.76;100.00
66021;BME280;52789;59.980;30.346;2023-03-15T04:49:30;99124.16;;;4.74;100.00
66021;BME280;52789;59.980;30.346;2023-03-15T04:51:55;99122.50;;;4.73;100.00
66021;BME280;52789;59.980;30.346;2023-03-15T04:54:21;99126.63;;;4.75;100.00
66021;BME280;52789;59.980;30.346;2023-03-15T04:56:47;99137.03;;;4.77;100.00
66021;BME280;52789;59.980;30.346;2023-03-15T04:59:12;99139.66;;;4.77;100.00
66021;BME280;52789;59.980;30.346;2023-03-15T05:01:38;99152.69;;;4.78;100.00
66021;BME280;52789;59.980;30.346;2023-03-15T05:04:03;99150.69;;;4.80;100.00
66021;BME280;52789;59.980;30.346;2023-03-15T05:06:28;99151.19;;;4.84;100.00
66021;BME280;52789;59.980;30.346;2023-03-15T05:08:54;99147.88;;;4.82;100.00
66021;BME280;52789;59.980;30.346;2023-03-15T05:11:22;99144.59;;;4.80;100.00
66021;BME280;52789;59.980;30.346;2023-03-15T05:13:47;99142.63;;;4.82;100.00
66021;BME280;52789;59.980;30.346;2023-03-15T05:16:12;99140.63;;;4.84;100.00
66021;BME280;52789;59.980;30.346;2023-03-15T05:18:38;99152.84;;;4.85;100.00
66021;BME280;52789;59.980;30.346;2023-03-15T05:21:04;99148.22;;;4.87;100.00
66021;BME280;52789;59.980;30.346;2023-03-15T05:23:30;99153.00;;;4.91;100.00
66021;BME280;52789;59.980;30.346;2023-03-15T05:25:56;99147.56;;;4.93;100.00
66021;BME280;52789;59.980;30.346;2023-03-15T05:28:30;99156.78;;;4.89;100.00
66021;BME280;52789;59.980;30.346;2023-03-15T05:30:58;99149.22;;;4.94;100.00
66021;BME280;52789;59.980;30.346;2023-03-15T05:33:26;99147.25;;;4.96;100.00
66021;BME280;52789;59.980;30.346;2023-03-15T05:35:52;99148.72;;;4.98;100.00
66021;BME280;52789;59.980;30.346;2023-03-15T05:38:19;99147.91;;;4.98;100.00
66021;BME280;52789;59.980;30.346;2023-03-15T05:40:50;99152.34;;;4.97;100.00
66021;BME280;52789;59.980;30.346;2023-03-15T05:43:16;99151.03;;;5.02;100.00
66021;BME280;52789;59.980;30.346;2023-03-15T05:45:41;99161.91;;;5.07;100.00
66021;BME280;52789;59.980;30.346;2023-03-15T05:48:08;99159.75;;;5.10;100.00
66021;BME280;52789;59.980;30.346;2023-03-15T05:50:34;99169.31;;;5.11;100.00
66021;BME280;52789;59.980;30.346;2023-03-15T05:52:59;99170.13;;;5.12;100.00
66021;BME280;52789;59.980;30.346;2023-03-15T05:55:24;99172.78;;;5.12;100.00
66021;BME280;52789;59.980;30.346;2023-03-15T05:57:50;99179.84;;;5.19;100.00
66021;BME280;52789;59.980;30.346;2023-03-15T06:00:15;99176.56;;;5.25;100.00
66021;BME280;52789;59.980;30.346;2023-03-15T06:02:41;99193.06;;;5.27;100.00
66021;BME280;52789;59.980;30.346;2023-03-15T06:05:06;99192.41;;;5.25;100.00
66021;BME280;52789;59.980;30.346;2023-03-15T06:07:32;99197.69;;;5.25;100.00
66021;BME280;52789;59.980;30.346;2023-03-15T06:09:57;99192.41;;;5.25;100.00
66021;BME280;52789;59.980;30.346;2023-03-15T06:12:22;99190.44;;;5.27;100.00
66021;BME280;52789;59.980;30.346;2023-03-15T06:14:48;99194.53;;;5.30;100.00
66021;BME280;52789;59.980;30.346;2023-03-15T06:17:20;99198.16;;;5.29;100.00
66021;BME280;52789;59.980;30.346;2023-03-15T06:19:46;99210.22;;;5.32;100.00
66021;BME280;52789;59.980;30.346;2023-03-15T06:22:11;99211.19;;;5.31;100.00
66021;BME280;52789;59.980;30.346;2023-03-15T06:24:37;99205.91;;;5.31;100.00
66021;BME280;52789;59.980;30.346;2023-03-15T06:27:02;99212.38;;;5.28;100.00
66021;BME280;52789;59.980;30.346;2023-03-15T06:29:28;99206.44;;;5.26;100.00
66021;BME280;52789;59.980;30.346;2023-03-15T06:31:53;99209.91;;;5.26;100.00
66021;BME280;52789;59.980;30.346;2023-03-15T06:34:18;99208.56;;;5.31;100.00
66021;BME280;52789;59.980;30.346;2023-03-15T06:36:45;99219.28;;;5.29;100.00
66021;BME280;52789;59.980;30.346;2023-03-15T06:39:10;99210.22;;;5.32;100.00
66021;BME280;52789;59.980;30.346;2023-03-15T06:41:36;99209.88;;;5.35;100.00
66021;BME280;52789;59.980;30.346;2023-03-15T06:44:01;99223.91;;;5.35;100.00
66021;BME280;52789;59.980;30.346;2023-03-15T06:46:27;99220.75;;;5.40;100.00
66021;BME280;52789;59.980;30.346;2023-03-15T06:48:52;99220.75;;;5.40;100.00
66021;BME280;52789;59.980;30.346;2023-03-15T06:51:17;99220.41;;;5.43;100.00
66021;BME280;52789;59.980;30.346;2023-03-15T06:53:45;99222.06;;;5.44;100.00
66021;BME280;52789;59.980;30.346;2023-03-15T06:56:11;99227.00;;;5.47;100.00
66021;BME280;52789;59.980;30.346;2023-03-15T06:58:36;99226.19;;;5.46;100.00
66021;BME280;52789;59.980;30.346;2023-03-15T07:01:01;99225.34;;;5.46;100.00
66021;BME280;52789;59.980;30.346;2023-03-15T07:03:27;99239.88;;;5.42;100.00
66021;BME280;52789;59.980;30.346;2023-03-15T07:05:52;99243.03;;;5.37;100.00
66021;BME280;52789;59.980;30.346;2023-03-15T07:08:19;99256.72;;;5.33;100.00
66021;BME280;52789;59.980;30.346;2023-03-15T07:10:44;99252.13;;;5.26;100.00
66021;BME280;52789;59.980;30.346;2023-03-15T07:13:10;99259.06;;;5.27;100.00
66021;BME280;52789;59.980;30.346;2023-03-15T07:15:36;99266.31;;;5.25;100.00
66021;BME280;52789;59.980;30.346;2023-03-15T07:18:04;99265.97;;;5.28;100.00
66021;BME280;52789;59.980;30.346;2023-03-15T07:20:29;99272.91;;;5.29;100.00
66021;BME280;52789;59.980;30.346;2023-03-15T07:22:55;99280.50;;;5.24;100.00
66021;BME280;52789;59.980;30.346;2023-03-15T07:25:21;99287.09;;;5.20;100.00
66021;BME280;52789;59.980;30.346;2023-03-15T07:27:51;99286.94;;;5.22;100.00
66021;BME280;52789;59.980;30.346;2023-03-15T07:30:19;99293.88;;;5.23;100.00
66021;BME280;52789;59.980;30.346;2023-03-15T07:32:44;99284.75;;;5.17;100.00
66021;BME280;52789;59.980;30.346;2023-03-15T07:35:13;99296.13;;;5.18;100.00
66021;BME280;52789;59.980;30.346;2023-03-15T07:37:39;99298.31;;;5.22;100.00
66021;BME280;52789;59.980;30.346;2023-03-15T07:40:05;99292.72;;;5.25;100.00
66021;BME280;52789;59.980;30.346;2023-03-15T07:42:34;99303.59;;;5.31;100.00
66021;BME280;52789;59.980;30.346;2023-03-15T07:45:00;99294.34;;;5.26;100.00
66021;BME280;52789;59.980;30.346;2023-03-15T07:47:25;99281.81;;;5.20;100.00
66021;BME280;52789;59.980;30.346;2023-03-15T07:49:50;99295.03;;;5.20;100.00
66021;BME280;52789;59.980;30.346;2023-03-15T07:52:16;99294.69;;;5.23;100.00
66021;BME280;52789;59.980;30.346;2023-03-15T07:54:42;99295.00;;;5.28;100.00
66021;BME280;52789;59.980;30.346;2023-03-15T07:57:07;99284.28;;;5.30;100.00
66021;BME280;52789;59.980;30.346;2023-03-15T07:59:32;99291.72;;;5.35;100.00
66021;BME280;52789;59.980;30.346;2023-03-15T08:01:58;99286.09;;;5.38;100.00
66021;BME280;52789;59.980;30.346;2023-03-15T08:04:24;99276.38;;;5.38;100.00
66021;BME280;52789;59.980;30.346;2023-03-15T08:06:50;99291.69;;;5.43;100.00
66021;BME280;52789;59.980;30.346;2023-03-15T08:09:15;99292.34;;;5.45;100.00
66021;BME280;52789;59.980;30.346;2023-03-15T08:11:43;99302.09;;;5.44;100.00
66021;BME280;52789;59.980;30.346;2023-03-15T08:14:08;99302.25;;;5.43;100.00
66021;BME280;52789;59.980;30.346;2023-03-15T08:16:35;99291.53;;;5.44;100.00
66021;BME280;52789;59.980;30.346;2023-03-15T08:19:00;99301.44;;;5.42;100.00
66021;BME280;52789;59.980;30.346;2023-03-15T08:21:26;99307.72;;;5.41;100.00
66021;BME280;52789;59.980;30.346;2023-03-15T08:23:54;99308.53;;;5.42;100.00
66021;BME280;52789;59.980;30.346;2023-03-15T08:26:19;99319.25;;;5.40;100.00
66021;BME280;52789;59.980;30.346;2023-03-15T08:28:44;99311.50;;;5.39;100.00
66021;BME280;52789;59.980;30.346;2023-03-15T08:31:10;99312.50;;;5.38;100.00
66021;BME280;52789;59.980;30.346;2023-03-15T08:33:41;99327.34;;;5.31;100.00
66021;BME280;52789;59.980;30.346;2023-03-15T08:36:06;99338.25;;;5.27;100.00
66021;BME280;52789;59.980;30.346;2023-03-15T08:38:31;99406.81;;;5.19;100.00
66021;BME280;52789;59.980;30.346;2023-03-15T08:40:57;99423.84;;;4.83;100.00
66021;BME280;52789;59.980;30.346;2023-03-15T08:43:22;99446.03;;;4.38;100.00
66021;BME280;52789;59.980;30.346;2023-03-15T08:45:49;99438.88;;;4.04;100.00
66021;BME280;52789;59.980;30.346;2023-03-15T08:48:15;99448.25;;;3.81;100.00
66021;BME280;52789;59.980;30.346;2023-03-15T08:50:46;99465.00;;;3.62;100.00
66021;BME280;52789;59.980;30.346;2023-03-15T08:53:12;99484.22;;;3.45;100.00
66021;BME280;52789;59.980;30.346;2023-03-15T08:55:38;99502.09;;;3.24;100.00
66021;BME280;52789;59.980;30.346;2023-03-15T08:58:04;99502.44;;;3.11;100.00
66021;BME280;52789;59.980;30.346;2023-03-15T09:00:33;99527.41;;;2.97;100.00
66021;BME280;52789;59.980;30.346;2023-03-15T09:03:01;99538.00;;;2.78;100.00
66021;BME280;52789;59.980;30.346;2023-03-15T09:05:31;99535.00;;;2.63;100.00
66021;BME280;52789;59.980;30.346;2023-03-15T09:07:56;99531.94;;;2.58;100.00
66021;BME280;52789;59.980;30.346;2023-03-15T09:10:22;99546.47;;;2.62;100.00
66021;BME280;52789;59.980;30.346;2023-03-15T09:12:49;99550.75;;;2.54;100.00
66021;BME280;52789;59.980;30.346;2023-03-15T09:15:15;99562.66;;;2.48;100.00
66021;BME280;52789;59.980;30.346;2023-03-15T09:17:48;99563.25;;;2.42;100.00
66021;BME280;52789;59.980;30.346;2023-03-15T09:20:14;99586.34;;;2.38;100.00
66021;BME280;52789;59.980;30.346;2023-03-15T09:22:41;99596.41;;;2.24;100.00
66021;BME280;52789;59.980;30.346;2023-03-15T09:25:06;99591.31;;;2.12;100.00
66021;BME280;52789;59.980;30.346;2023-03-15T09:27:33;99600.56;;;2.07;100.00
66021;BME280;52789;59.980;30.346;2023-03-15T09:30:02;99605.66;;;1.99;100.00
66021;BME280;52789;59.980;30.346;2023-03-15T09:32:31;99605.78;;;1.97;100.00
66021;BME280;52789;59.980;30.346;2023-03-15T09:35:02;99600.38;;;1.89;100.00
66021;BME280;52789;59.980;30.346;2023-03-15T09:37:28;99606.34;;;1.91;100.00
66021;BME280;52789;59.980;30.346;2023-03-15T09:39:54;99624.03;;;1.89;100.00
66021;BME280;52789;59.980;30.346;2023-03-15T09:42:24;99628.03;;;1.93;100.00
66021;BME280;52789;59.980;30.346;2023-03-15T09:44:58;99624.31;;;1.96;100.00
66021;BME280;52789;59.980;30.346;2023-03-15T09:50:30;99641.84;;;1.95;100.00
66021;BME280;52789;59.980;30.346;2023-03-15T09:53:05;99649.03;;;1.93;100.00
66021;BME280;52789;59.980;30.346;2023-03-15T09:55:34;99672.13;;;1.90;100.00
66021;BME280;52789;59.980;30.346;2023-03-15T09:58:04;99671.13;;;1.81;100.00
66021;BME280;52789;59.980;30.346;2023-03-15T10:00:38;99658.00;;;1.81;100.00
66021;BME280;52789;59.980;30.346;2023-03-15T10:03:05;99690.63;;;1.88;100.00
66021;BME280;52789;59.980;30.346;2023-03-15T10:05:40;99705.56;;;1.97;100.00
66021;BME280;52789;59.980;30.346;2023-03-15T10:08:08;99711.69;;;2.07;100.00
66021;BME280;52789;59.980;30.346;2023-03-15T10:10:35;99717.66;;;2.09;100.00
66021;BME280;52789;59.980;30.346;2023-03-15T10:13:49;99721.75;;;2.02;100.00
66021;BME280;52789;59.980;30.346;2023-03-15T10:15:55;99735.47;;;2.06;100.00
66021;BME280;52789;59.980;30.346;2023-03-15T10:18:27;99734.25;;;2.10;100.00
66021;BME280;52789;59.980;30.346;2023-03-15T10:21:03;99730.81;;;2.19;100.00
66021;BME280;52789;59.980;30.346;2023-03-15T10:23:32;99733.31;;;2.30;100.00
66021;BME280;52789;59.980;30.346;2023-03-15T10:26:00;99751.59;;;2.32;100.00
66021;BME280;52789;59.980;30.346;2023-03-15T10:28:28;99748.00;;;2.33;100.00
66021;BME280;52789;59.980;30.346;2023-03-15T10:30:57;99758.22;;;2.36;100.00
66021;BME280;52789;59.980;30.346;2023-03-15T10:33:27;99743.59;;;2.43;100.00
66021;BME280;52789;59.980;30.346;2023-03-15T10:35:53;99741.38;;;2.48;100.00
66021;BME280;52789;59.980;30.346;2023-03-15T10:38:20;99749.69;;;2.53;100.00
66021;BME280;52789;59.980;30.346;2023-03-15T10:40:46;99762.69;;;2.55;100.00
66021;BME280;52789;59.980;30.346;2023-03-15T10:43:22;99768.25;;;2.61;100.00
66021;BME280;52789;59.980;30.346;2023-03-15T10:48:33;99787.34;;;2.63;100.00
66021;BME280;52789;59.980;30.346;2023-03-15T10:51:03;99789.53;;;2.58;100.00
66021;BME280;52789;59.980;30.346;2023-03-15T10:53:29;99803.06;;;2.54;100.00
66021;BME280;52789;59.980;30.346;2023-03-15T10:55:59;99814.13;;;2.47;100.00
66021;BME280;52789;59.980;30.346;2023-03-15T10:58:29;99825.47;;;2.48;100.00
66021;BME280;52789;59.980;30.346;2023-03-15T11:01:03;99835.72;;;2.51;100.00
66021;BME280;52789;59.980;30.346;2023-03-15T11:03:31;99844.13;;;2.45;100.00
66021;BME280;52789;59.980;30.346;2023-03-15T11:05:57;99834.88;;;2.41;100.00
66021;BME280;52789;59.980;30.346;2023-03-15T11:08:24;99844.84;;;2.47;100.00
66021;BME280;52789;59.980;30.346;2023-03-15T11:11:03;99867.94;;;2.43;100.00
66021;BME280;52789;59.980;30.346;2023-03-15T11:13:29;99877.19;;;2.47;100.00
66021;BME280;52789;59.980;30.346;2023-03-15T11:18:27;99869.72;;;2.43;100.00
66021;BME280;52789;59.980;30.346;2023-03-15T11:20:53;99881.63;;;2.47;100.00
66021;BME280;52789;59.980;30.346;2023-03-15T11:23:21;99898.34;;;2.46;100.00
66021;BME280;52789;59.980;30.346;2023-03-15T11:25:47;99909.84;;;2.45;100.00
66021;BME280;52789;59.980;30.346;2023-03-15T11:28:17;99910.28;;;2.50;100.00
66021;BME280;52789;59.980;30.346;2023-03-15T11:30:44;99923.94;;;2.44;100.00
66021;BME280;52789;59.980;30.346;2023-03-15T11:33:10;99919.81;;;2.51;100.00
66021;BME280;52789;59.980;30.346;2023-03-15T11:35:43;99927.38;;;2.65;100.00
66021;BME280;52789;59.980;30.346;2023-03-15T11:38:16;99915.47;;;2.61;100.00
66021;BME280;52789;59.980;30.346;2023-03-15T11:40:43;99924.31;;;2.60;100.00
66021;BME280;52789;59.980;30.346;2023-03-15T11:46:07;99941.53;;;2.84;100.00
66021;BME280;52789;59.980;30.346;2023-03-15T11:48:47;99937.16;;;2.94;100.00
66021;BME280;52789;59.980;30.346;2023-03-15T11:51:15;99949.09;;;3.07;100.00
66021;BME280;52789;59.980;30.346;2023-03-15T11:53:46;99957.41;;;3.13;99.40
66021;BME280;52789;59.980;30.346;2023-03-15T12:01:48;99979.56;;;3.10;97.63
66021;BME280;52789;59.980;30.346;2023-03-15T12:06:49;99989.66;;;3.15;97.58
66021;BME280;52789;59.980;30.346;2023-03-15T12:12:01;99992.91;;;3.18;94.67
66021;BME280;52789;59.980;30.346;2023-03-15T12:14:34;99997.53;;;3.05;94.17
66021;BME280;52789;59.980;30.346;2023-03-15T12:19:46;100009.06;;;3.14;94.31
66021;BME280;52789;59.980;30.346;2023-03-15T12:22:15;100014.19;;;3.15;94.69
66021;BME280;52789;59.980;30.346;2023-03-15T12:24:41;100019.63;;;3.23;93.84
66021;BME280;52789;59.980;30.346;2023-03-15T12:27:15;100034.59;;;3.32;94.49
66021;BME280;52789;59.980;30.346;2023-03-15T12:29:45;100027.00;;;3.29;92.27
66021;BME280;52789;59.980;30.346;2023-03-15T12:32:14;100019.91;;;3.30;93.16
66021;BME280;52789;59.980;30.346;2023-03-15T12:48:22;100084.34;;;3.35;91.98
66021;BME280;52789;59.980;30.346;2023-03-15T12:50:50;100103.75;;;3.34;89.49
66021;BME280;52789;59.980;30.346;2023-03-15T12:55:48;100129.09;;;3.35;89.28
66021;BME280;52789;59.980;30.346;2023-03-15T12:58:18;100128.16;;;3.46;89.66
66021;BME280;52789;59.980;30.346;2023-03-15T13:00:47;100138.81;;;3.45;87.71
66021;BME280;52789;59.980;30.346;2023-03-15T13:03:20;100143.09;;;3.36;85.02
66021;BME280;52789;59.980;30.346;2023-03-15T13:08:42;100160.72;;;2.94;81.18
66021;BME280;52789;59.980;30.346;2023-03-15T13:13:52;100174.56;;;2.75;83.91
66021;BME280;52789;59.980;30.346;2023-03-15T13:21:33;100197.00;;;2.79;81.62
66021;BME280;52789;59.980;30.346;2023-03-15T13:23:59;100187.84;;;2.73;82.06
66021;BME280;52789;59.980;30.346;2023-03-15T13:26:29;100200.72;;;2.76;81.12
66021;BME280;52789;59.980;30.346;2023-03-15T13:29:00;100203.09;;;2.79;80.81
66021;BME280;52789;59.980;30.346;2023-03-15T13:31:26;100207.91;;;2.74;79.90
66021;BME280;52789;59.980;30.346;2023-03-15T13:33:54;100212.19;;;2.75;81.23
66021;BME280;52789;59.980;30.346;2023-03-15T13:36:28;100218.94;;;2.68;80.61
66021;BME280;52789;59.980;30.346;2023-03-15T13:39:07;100219.88;;;2.67;80.15
66021;BME280;52789;59.980;30.346;2023-03-15T13:41:33;100225.16;;;2.67;80.00
66021;BME280;52789;59.980;30.346;2023-03-15T13:44:00;100232.31;;;2.65;79.29
66021;BME280;52789;59.980;30.346;2023-03-15T13:46:28;100238.06;;;2.59;78.32
66021;BME280;52789;59.980;30.346;2023-03-15T13:48:54;100238.06;;;2.59;79.19
66021;BME280;52789;59.980;30.346;2023-03-15T13:51:27;100246.69;;;2.61;78.11
66021;BME280;52789;59.980;30.346;2023-03-15T13:53:59;100247.41;;;2.52;76.97